Time;durP1;ratioP1;P1;durP2;ratioP2;P2;SDS_P1;SDS_P2;PMS_P1;PMS_P2;Temp;Humidity;BMP_temperature;BMP_pressure;BME280_temperature;BME280_humidity;BME280_pressure;Samples;Min_cycle;Max_cycle;Signal;HPM_P1;HPM_P2
2021/11/03 00:00:32;;;;;;;36.15;27.55;;;435.20;1971.20;;;;;;5126466;27;20038;-74
2021/11/03 00:02:58;;;;;;;37.58;28.42;;;;;;;;;;5121402;27;20026;-72
2021/11/03 00:05:24;;;;;;;35.10;27.83;;;;;;;;;;5128173;27;20046;-71
2021/11/03 00:07:50;;;;;;;39.33;31.25;;;;;;;;;;5126782;27;20044;-73
2021/11/03 00:10:17;;;;;;;45.05;34.10;;;;;;;;;;5122844;27;20028;-72
2021/11/03 00:12:43;;;;;;;42.80;32.67;;;;;;;;;;5130760;27;20023;-73
2021/11/03 00:15:10;;;;;;;51.22;36.67;;;;;;;;;;5108767;27;20020;-71
2021/11/03 00:17:37;;;;;;;42.22;32.95;;;;;;;;;;5108355;27;20028;-71
2021/11/03 00:20:04;;;;;;;45.97;30.70;;;;;;;;;;5124027;27;20478;-73
2021/11/03 00:22:30;;;;;;;46.20;33.15;;;;;;;;;;5127222;27;20031;-71
2021/11/03 00:24:56;;;;;;;44.25;31.77;;;;;;;;;;5124784;27;20042;-72
2021/11/03 00:27:22;;;;;;;51.95;34.58;;;;;;;;;;5118369;27;20051;-71
2021/11/03 00:29:48;;;;;;;82.10;47.75;;;;;;;;;;5127870;27;20111;-71
2021/11/03 00:32:15;;;;;;;43.45;30.02;;;;;;;;;;5131870;27;20416;-70
2021/11/03 00:34:41;;;;;;;44.40;30.92;;;;;;;;;;5133495;27;20040;-71
2021/11/03 00:37:07;;;;;;;46.92;31.20;;;;;;;;;;5124646;27;20024;-71
2021/11/03 00:39:34;;;;;;;45.97;30.67;;;;;;;;;;5133715;27;20015;-73
2021/11/03 00:42:00;;;;;;;40.95;29.02;;;;;;;;;;5133382;27;20023;-72
2021/11/03 00:44:26;;;;;;;42.97;28.50;;;;;;;;;;5133796;27;20019;-71
2021/11/03 00:46:52;;;;;;;40.80;27.17;;;;;;;;;;5129119;27;20047;-70
2021/11/03 00:49:19;;;;;;;40.30;28.13;;;;;;;;;;5129306;27;20380;-72
2021/11/03 00:51:45;;;;;;;40.50;30.52;;;;;;;;;;5116150;27;20032;-70
2021/11/03 00:54:12;;;;;;;42.83;30.23;;;;;;;;;;5114419;27;20019;-69
2021/11/03 00:56:38;;;;;;;39.95;29.13;;;;;;;;;;5133449;27;20039;-70
2021/11/03 00:59:04;;;;;;;39.35;29.25;;;;;;;;;;5133019;27;20022;-68
2021/11/03 01:01:31;;;;;;;42.95;28.88;;;;;;;;;;5132998;27;20023;-71
2021/11/03 01:03:57;;;;;;;41.53;29.58;;;;;;;;;;5133051;27;20027;-70
2021/11/03 01:06:23;;;;;;;45.75;31.90;;;;;;;;;;5132686;27;20051;-71
2021/11/03 01:08:49;;;;;;;44.50;30.35;;;;;;;;;;5132832;27;20385;-71
2021/11/03 01:11:16;;;;;;;45.58;31.35;;;;;;;;;;5132797;28;20106;-71
2021/11/03 01:13:42;;;;;;;52.13;36.47;;;;;;;;;;5132879;28;20031;-71
2021/11/03 01:16:08;;;;;;;53.90;37.47;;;;;;;;;;5133027;28;20118;-70
2021/11/03 01:18:34;;;;;;;52.80;36.17;;;;;;;;;;5132836;28;20020;-69
2021/11/03 01:21:01;;;;;;;49.22;36.92;;;;;;;;;;5119880;28;20054;-69
2021/11/03 01:23:28;;;;;;;52.53;38.50;;;;;;;;;;5128734;28;20577;-70
2021/11/03 01:25:54;;;;;;;57.22;41.38;;;;;;;;;;5132637;28;20039;-69
2021/11/03 01:28:21;;;;;;;46.70;36.17;;;;;;;;;;5132657;28;20059;-69
2021/11/03 01:30:47;;;;;;;47.10;32.65;;;;;;;;;;5132486;28;20030;-69
2021/11/03 01:33:17;;;;;;;46.03;31.48;;;;;;;;;;5132791;28;20077;-69
2021/11/03 01:35:44;;;;;;;42.03;30.45;;;;;;;;;;5132667;28;20057;-69
2021/11/03 01:38:10;;;;;;;41.30;30.23;;;;;;;;;;5132782;28;20020;-74
2021/11/03 01:40:37;;;;;;;40.63;29.55;;;;;;;;;;5132883;28;20019;-74
2021/11/03 01:43:04;;;;;;;36.67;29.55;;;;;;;;;;5131584;28;20023;-73
2021/11/03 01:45:30;;;;;;;37.72;28.27;;;;;;;;;;5132605;28;20039;-70
2021/11/03 01:47:58;;;;;;;42.28;30.35;;;;;;;;;;5132720;28;20031;-73
2021/11/03 01:50:24;;;;;;;41.35;29.20;;;;;;;;;;5113967;28;20020;-71
2021/11/03 01:52:54;;;;;;;40.42;28.70;;;;;;;;;;5103918;28;20023;-70
2021/11/03 01:55:20;;;;;;;43.97;29.98;;;;;;;;;;5132553;28;20513;-71
2021/11/03 01:57:49;;;;;;;44.05;30.00;;;;;;;;;;5132435;28;20482;-74
2021/11/03 02:00:17;;;;;;;40.28;29.40;;;;;;;;;;5132603;28;20027;-70
2021/11/03 02:02:44;;;;;;;44.83;29.42;;;;;;;;;;5132306;28;20022;-69
2021/11/03 02:05:11;;;;;;;44.80;30.45;;;;;;;;;;5132665;28;20354;-71
2021/11/03 02:07:38;;;;;;;43.42;30.63;;;;;;;;;;5132167;28;20052;-74
2021/11/03 02:10:05;;;;;;;47.25;30.42;;;;;;;;;;5132391;28;20102;-68
2021/11/03 02:12:31;;;;;;;46.67;31.05;;;;;;;;;;5132100;28;20661;-70
2021/11/03 02:14:58;;;;;;;44.45;31.50;;;;;;;;;;5132633;28;20016;-71
2021/11/03 02:17:25;;;;;;;42.58;30.45;;;;;;;;;;5132749;27;20491;-72
2021/11/03 02:19:51;;;;;;;43.88;29.17;;;;;;;;;;5127712;27;20545;-73
2021/11/03 02:22:24;;;;;;;41.47;29.65;;;;;;;;;;5127422;27;20038;-70
2021/11/03 02:24:56;;;;;;;40.70;29.70;;;;;;;;;;5135924;27;20023;-71
2021/11/03 02:27:23;;;;;;;43.85;29.17;;;;;;;;;;5107921;27;20059;-71
2021/11/03 02:29:49;;;;;;;42.83;30.90;;;;;;;;;;5135914;27;20046;-68
2021/11/03 02:32:26;;;;;;;41.80;31.15;;;;;;;;;;5135761;27;20034;-69
2021/11/03 02:34:52;;;;;;;37.90;27.10;;;;;;;;;;5136033;27;20385;-69
2021/11/03 02:37:27;;;;;;;41.95;29.95;;;;;;;;;;5135827;27;20023;-69
2021/11/03 02:39:59;;;;;;;36.80;28.55;;;;;;;;;;5136012;27;20029;-68
2021/11/03 02:42:29;;;;;;;43.88;30.80;;;;;;;;;;5135909;27;20023;-68
2021/11/03 02:44:57;;;;;;;44.85;31.08;;;;;;;;;;5136092;27;20023;-69
2021/11/03 02:47:23;;;;;;;44.97;30.30;;;;;;;;;;5135589;27;20037;-69
2021/11/03 02:49:49;;;;;;;45.45;31.73;;;;;;;;;;5127607;27;20024;-67
2021/11/03 02:52:17;;;;;;;44.10;30.83;;;;;;;;;;5126251;27;20053;-68
2021/11/03 02:54:43;;;;;;;47.78;31.38;;;;;;;;;;5135825;27;20015;-70
2021/11/03 02:57:09;;;;;;;49.03;31.27;;;;;;;;;;5135635;27;20038;-69
2021/11/03 02:59:35;;;;;;;41.88;30.00;;;;;;;;;;5135759;27;20030;-69
2021/11/03 03:02:02;;;;;;;41.30;28.52;;;;;;;;;;5135381;27;20023;-69
2021/11/03 03:04:30;;;;;;;40.17;29.13;;;;;;;;;;5135341;27;20041;-69
2021/11/03 03:06:56;;;;;;;46.42;29.60;;;;;;;;;;5135581;27;20068;-69
2021/11/03 03:09:22;;;;;;;45.92;31.85;;;;;;;;;;5135467;27;20111;-69
2021/11/03 03:11:51;;;;;;;45.25;30.42;;;;;;;;;;5135475;27;20043;-70
2021/11/03 03:14:19;;;;;;;51.72;33.25;;;;;;;;;;5135203;27;20027;-69
2021/11/03 03:16:46;;;;;;;47.97;31.58;;;;;;;;;;5135309;27;20023;-70
2021/11/03 03:19:12;;;;;;;51.03;33.45;;;;;;;;;;5135211;27;20026;-70
2021/11/03 03:21:38;;;;;;;51.40;33.15;;;;;;;;;;5119168;27;20023;-68
2021/11/03 03:24:06;;;;;;;48.65;32.60;;;;;;;;;;5135218;27;20018;-69
2021/11/03 03:26:32;;;;;;;52.58;32.50;;;;;;;;;;5126199;27;20050;-69
2021/11/03 03:28:58;;;;;;;48.85;32.80;;;;;;;;;;5134578;27;20488;-69
2021/11/03 03:31:25;;;;;;;53.03;32.85;;;;;;;;;;5134805;27;20027;-70
2021/11/03 03:33:53;;;;;;;54.88;35.08;;;;;;;;;;5134501;27;20054;-72
2021/11/03 03:36:19;;;;;;;83.20;60.80;;;;;;;;;;5134617;27;20084;-72
2021/11/03 03:38:45;;;;;;;72.45;50.72;;;;;;;;;;5134522;27;20049;-71
2021/11/03 03:41:12;;;;;;;65.95;44.38;;;;;;;;;;5134604;27;20026;-71
2021/11/03 03:43:38;;;;;;;55.45;39.63;;;;;;;;;;5134596;27;20023;-71
2021/11/03 03:46:05;;;;;;;51.05;34.38;;;;;;;;;;5134782;27;20047;-71
2021/11/03 03:48:31;;;;;;;87.28;58.92;;;;;;;;;;5134124;27;20015;-71
2021/11/03 03:50:57;;;;;;;65.07;41.80;;;;;;;;;;5116772;27;20031;-70
2021/11/03 03:53:23;;;;;;;51.80;35.63;;;;;;;;;;5134364;27;20098;-71
2021/11/03 03:55:50;;;;;;;55.95;34.95;;;;;;;;;;5133923;27;20035;-71
2021/11/03 03:58:17;;;;;;;54.20;35.45;;;;;;;;;;5134206;27;20050;-71
2021/11/03 04:00:44;;;;;;;55.85;35.70;;;;;;;;;;5134074;27;20063;-69
2021/11/03 04:03:10;;;;;;;49.70;34.22;;;;;;;;;;5133796;27;20019;-73
2021/11/03 04:05:36;;;;;;;49.78;33.63;;;;;;;;;;5134010;27;20030;-71
2021/11/03 04:08:02;;;;;;;114.32;62.10;;;;;;;;;;5133907;27;20469;-73
2021/11/03 04:10:28;;;;;;;61.25;38.70;;;;;;;;;;5134043;27;20051;-73
2021/11/03 04:12:54;;;;;;;55.42;35.95;;;;;;;;;;5133681;27;20019;-72
2021/11/03 04:15:20;;;;;;;50.95;32.33;;;;;;;;;;5133921;27;20517;-71
2021/11/03 04:17:46;;;;;;;52.90;34.72;;;;;;;;;;5133786;27;20474;-71
2021/11/03 04:20:14;;;;;;;49.53;31.83;;;;;;;;;;5127389;27;20389;-72
2021/11/03 04:22:41;;;;;;;50.53;33.13;;;;;;;;;;5125512;27;20115;-72
2021/11/03 04:25:07;;;;;;;54.17;33.60;;;;;;;;;;5134016;27;20035;-70
2021/11/03 04:27:34;;;;;;;48.75;34.63;;;;;;;;;;5134011;27;20047;-72
2021/11/03 04:30:00;;;;;;;81.50;54.03;;;;;;;;;;5119576;27;20028;-71
2021/11/03 04:32:26;;;;;;;84.22;58.08;;;;;;;;;;5133758;27;20047;-71
2021/11/03 04:34:52;;;;;;;57.28;38.78;;;;;;;;;;5134173;27;20068;-71
2021/11/03 04:37:19;;;;;;;49.95;33.58;;;;;;;;;;5133705;27;20098;-71
2021/11/03 04:39:45;;;;;;;52.03;32.08;;;;;;;;;;5133814;27;20050;-73
2021/11/03 04:42:11;;;;;;;42.97;29.77;;;;;;;;;;5116931;27;20031;-69
2021/11/03 04:44:37;;;;;;;44.75;32.55;;;;;;;;;;5133915;27;20362;-72
2021/11/03 04:47:04;;;;;;;53.90;35.20;;;;;;;;;;5133321;27;20019;-73
2021/11/03 04:49:30;;;;;;;52.63;34.95;;;;;;;;;;5131861;27;20019;-74
2021/11/03 04:51:56;;;;;;;51.08;32.88;;;;;;;;;;5118553;27;20385;-69
2021/11/03 04:54:22;;;;;;;50.83;33.45;;;;;;;;;;5133058;27;20064;-74
2021/11/03 04:56:50;;;;;;;51.05;32.80;;;;;;;;;;5133150;27;20114;-73
2021/11/03 04:59:16;;;;;;;47.70;33.17;;;;;;;;;;5133051;27;20019;-70
2021/11/03 05:01:42;;;;;;;49.10;32.95;;;;;;;;;;5133227;27;20029;-74
2021/11/03 05:04:08;;;;;;;43.42;28.38;;;;;;;;;;5132729;27;20048;-75
2021/11/03 05:06:35;;;;;;;53.67;31.90;;;;;;;;;;5133055;27;20058;-75
2021/11/03 05:09:03;;;;;;;46.65;31.25;;;;;;;;;;5133034;27;20363;-74
2021/11/03 05:11:30;;;;;;;49.88;32.80;;;;;;;;;;5132819;27;20031;-75
2021/11/03 05:13:56;;;;;;;49.88;30.80;;;;;;;;;;5132868;28;20469;-75
2021/11/03 05:16:23;;;;;;;54.50;32.85;;;;;;;;;;5132909;28;20019;-69
2021/11/03 05:18:49;;;;;;;55.92;31.27;;;;;;;;;;5132652;28;20015;-74
2021/11/03 05:21:15;;;;;;;59.90;33.20;;;;;;;;;;5120285;28;20020;-70
2021/11/03 05:23:42;;;;;;;60.90;35.30;;;;;;;;;;5130818;28;20470;-71
2021/11/03 05:26:08;;;;;;;74.15;37.58;;;;;;;;;;5132653;28;20140;-70
2021/11/03 05:28:36;;;;;;;69.88;39.03;;;;;;;;;;5132708;28;20030;-73
2021/11/03 05:31:02;;;;;;;68.72;41.25;;;;;;;;;;5133063;28;20027;-70
2021/11/03 05:33:28;;;;;;;72.82;43.00;;;;;;;;;;5132409;28;20406;-69
2021/11/03 05:35:54;;;;;;;65.32;42.90;;;;;;;;;;5132860;28;20127;-69
2021/11/03 05:38:20;;;;;;;67.40;39.42;;;;;;;;;;5132834;28;20050;-72
2021/11/03 05:40:46;;;;;;;78.30;40.40;;;;;;;;;;5132573;28;20498;-70
2021/11/03 05:43:13;;;;;;;77.65;40.53;;;;;;;;;;5114669;28;20086;-69
2021/11/03 05:45:39;;;;;;;73.03;40.72;;;;;;;;;;5132945;28;20029;-69
2021/11/03 05:48:05;;;;;;;67.70;41.40;;;;;;;;;;5132602;28;20026;-70
2021/11/03 05:50:32;;;;;;;90.32;39.95;;;;;;;;;;5116076;28;20112;-69
2021/11/03 05:52:59;;;;;;;88.32;42.47;;;;;;;;;;5134153;27;20030;-69
2021/11/03 05:55:25;;;;;;;62.83;37.15;;;;;;;;;;5136301;27;20059;-70
2021/11/03 05:57:52;;;;;;;76.38;41.72;;;;;;;;;;5136437;27;20041;-71
2021/11/03 06:00:26;;;;;;;74.00;40.83;;;;;;;;;;5136356;27;20169;-72
2021/11/03 06:02:52;;;;;;;90.88;43.65;;;;;;;;;;5126206;27;20091;-70
2021/11/03 06:05:19;;;;;;;81.13;42.35;;;;;;;;;;5124769;27;20015;-72
2021/11/03 06:07:54;;;;;;;117.50;55.55;;;;;;;;;;5135896;27;20103;-71
2021/11/03 06:10:30;;;;;;;73.35;43.03;;;;;;;;;;5135970;27;20035;-72
2021/11/03 06:12:58;;;;;;;75.80;41.97;;;;;;;;;;5135589;27;20027;-70
2021/11/03 06:15:24;;;;;;;95.53;55.20;;;;;;;;;;5131875;27;20054;-71
2021/11/03 06:17:51;;;;;;;79.95;48.72;;;;;;;;;;5118067;27;20027;-70
2021/11/03 06:20:18;;;;;;;92.00;40.25;;;;;;;;;;5129653;27;20030;-71
2021/11/03 06:22:44;;;;;;;66.82;39.72;;;;;;;;;;5127361;27;20015;-70
2021/11/03 06:25:12;;;;;;;66.38;38.40;;;;;;;;;;5117254;27;20026;-70
2021/11/03 06:27:38;;;;;;;77.80;37.30;;;;;;;;;;5135989;27;20043;-72
2021/11/03 06:30:05;;;;;;;75.97;40.55;;;;;;;;;;5135763;27;20050;-71
2021/11/03 06:32:31;;;;;;;87.25;41.50;;;;;;;;;;5136249;27;20529;-71
2021/11/03 06:34:57;;;;;;;76.22;40.63;;;;;;;;;;5135964;27;20118;-72
2021/11/03 06:37:24;;;;;;;68.50;40.00;;;;;;;;;;5135887;27;20022;-72
2021/11/03 06:39:50;;;;;;;91.93;44.33;;;;;;;;;;5135998;27;20520;-71
2021/11/03 06:42:16;;;;;;;83.13;46.38;;;;;;;;;;5135888;27;20149;-71
2021/11/03 06:44:43;;;;;;;114.28;59.95;;;;;;;;;;5134408;27;20455;-71
2021/11/03 06:47:09;;;;;;;102.05;60.92;;;;;;;;;;5135555;27;20027;-72
2021/11/03 06:49:35;;;;;;;100.30;60.22;;;;;;;;;;5135746;27;20082;-71
2021/11/03 06:52:01;;;;;;;96.13;62.33;;;;;;;;;;5135844;27;20031;-71
2021/11/03 06:54:27;;;;;;;97.05;62.97;;;;;;;;;;5115334;27;20037;-71
2021/11/03 06:56:54;;;;;;;102.43;64.50;;;;;;;;;;5127010;27;20061;-71
2021/11/03 06:59:20;;;;;;;102.65;61.53;;;;;;;;;;5135049;27;20069;-71
2021/11/03 07:01:46;;;;;;;110.70;62.13;;;;;;;;;;5135812;27;20094;-71
2021/11/03 07:04:13;;;;;;;102.40;60.58;;;;;;;;;;5134959;27;20023;-71
2021/11/03 07:06:40;;;;;;;106.95;62.65;;;;;;;;;;5133835;27;20019;-71
2021/11/03 07:09:06;;;;;;;104.10;66.10;;;;;;;;;;5135526;27;20031;-70
2021/11/03 07:11:32;;;;;;;103.95;62.08;;;;;;;;;;5135399;27;20031;-73
2021/11/03 07:13:59;;;;;;;124.68;76.32;;;410.20;1996.80;;;;;;5135047;27;20068;-72
2021/11/03 07:16:25;;;;;;;152.35;89.85;;;410.20;1971.20;;;;;;5135078;27;20027;-71
2021/11/03 07:18:52;;;;;;;105.97;63.90;;;;;;;;;;5134979;27;20507;-71
2021/11/03 07:21:18;;;;;;;94.85;59.92;;;;;;;;;;5135171;27;20062;-71
2021/11/03 07:23:44;;;;;;;102.85;62.05;;;;;;;;;;5130407;27;20019;-71
2021/11/03 07:26:11;;;;;;;105.22;64.82;;;;;;;;;;5125270;27;20690;-71
2021/11/03 07:28:37;;;;;;;104.63;62.15;;;;;;;;;;5134691;27;20023;-71
2021/11/03 07:31:04;;;;;;;95.80;59.25;;;;;;;;;;5134831;27;20031;-71
2021/11/03 07:33:31;;;;;;;90.68;58.22;;;;;;;;;;5134509;27;20030;-70
2021/11/03 07:35:57;;;;;;;98.85;54.33;;;;;;;;;;5134777;27;20495;-70
2021/11/03 07:38:22;;;;;;;88.53;49.55;;;435.60;1894.40;;;;;;5134849;27;20030;-72
2021/11/03 07:40:52;;;;;;;104.93;56.22;;;435.70;1868.80;;;;;;5128033;27;20027;-71
2021/11/03 07:43:20;;;;;;;99.72;53.38;;;435.80;1868.80;;;;;;5126008;27;20019;-72
2021/11/03 07:45:47;;;;;;;92.50;47.90;;;;;;;;;;5134555;27;20496;-72
2021/11/03 07:48:13;;;;;;;108.07;59.00;;;;;;;;;;5134554;27;20492;-71
2021/11/03 07:50:41;;;;;;;89.55;44.58;;;;;;;;;;5134125;27;20039;-71
2021/11/03 07:53:08;;;;;;;93.97;45.85;;;;;;;;;;5134667;27;20607;-72
2021/11/03 07:55:34;;;;;;;95.25;48.38;;;;;;;;;;5133611;27;20062;-71
2021/11/03 07:58:00;;;;;;;92.50;45.97;;;460.80;1843.20;;;;;;5120844;27;20095;-72
2021/11/03 08:00:35;;;;;;;91.47;43.20;;;436.10;1843.20;;;;;;5134200;27;20450;-71
2021/11/03 08:03:01;;;;;;;80.05;43.10;;;435.90;1843.20;;;;;;5134540;27;20027;-72
2021/11/03 08:05:28;;;;;;;71.15;39.80;;;435.90;1868.80;;;;;;5134139;27;20465;-72
2021/11/03 08:08:10;;;;;;;107.35;67.22;;;460.90;1868.80;;;;;;5134286;27;20027;-72
2021/11/03 08:10:37;;;;;;;68.10;42.85;;;;;;;;;;5134089;27;20072;-72
2021/11/03 08:13:04;;;;;;;99.47;62.70;;;461.50;1792.00;;;;;;5133696;27;20038;-72
2021/11/03 08:15:30;;;;;;;70.00;40.67;;;486.70;1766.40;;;;;;5133326;27;20019;-72
2021/11/03 08:17:57;;;;;;;56.92;35.08;;;486.60;1715.20;;;;;;5116658;27;20024;-72
2021/11/03 08:20:26;;;;;;;58.38;33.05;;;486.40;1715.20;;;;;;5113500;28;20106;-72
2021/11/03 08:22:53;;;;;;;40.28;27.73;;;486.60;1715.20;;;;;;5125068;27;20023;-72
2021/11/03 08:25:20;;;;;;;43.67;27.08;;;486.50;1715.20;;;;;;5119092;27;20015;-72
2021/11/03 08:27:45;;;;;;;44.45;29.75;;;486.50;1715.20;;;;;;5133597;27;20477;-72
2021/11/03 08:30:14;;;;;;;48.97;28.90;;;486.70;1715.20;;;;;;5133821;27;20053;-72
2021/11/03 08:32:49;;;;;;;34.97;26.90;;;;;;;;;;5133938;27;20034;-71
2021/11/03 08:35:16;;;;;;;36.92;27.35;;;;;;;;;;5133441;27;20538;-72
2021/11/03 08:37:42;;;;;;;60.53;38.13;;;;;;;;;;5133741;27;20033;-71
2021/11/03 08:40:12;;;;;;;47.08;34.03;;;487.20;1664.00;;;;;;5133613;27;20051;-72
2021/11/03 08:42:38;;;;;;;53.40;37.42;;;487.10;1638.40;;;;;;5133495;27;20031;-72
2021/11/03 08:45:05;;;;;;;51.55;35.35;;;512.50;1612.80;;;;;;5133498;27;20038;-72
2021/11/03 08:47:33;;;;;;;54.63;35.85;;;512.50;1612.80;;;;;;5133384;27;20354;-72
2021/11/03 08:49:59;;;;;;;70.35;41.00;;;512.90;1587.20;;;;;;5133390;27;20023;-72
2021/11/03 08:52:25;;;;;;;60.95;42.85;;;;;;;;;;5133241;27;20073;-72
2021/11/03 08:54:50;;;;;;;50.00;37.88;;;538.00;1536.00;;;;;;5133428;27;20057;-72
2021/11/03 08:57:19;;;;;;;59.72;41.33;;;;;;;;;;5133307;27;20066;-72
2021/11/03 08:59:47;;;;;;;57.22;38.45;;;589.20;1408.00;;;;;;5133300;27;20022;-72
2021/11/03 09:02:13;;;;;;;52.72;35.80;;;;;;;;;;5133184;27;20023;-72
2021/11/03 09:04:39;;;;;;;49.05;33.42;;;;;;;;;;5133097;27;20477;-72
2021/11/03 09:07:11;;;;;;;41.63;29.92;;;;;;;;;;5131967;27;20019;-71
2021/11/03 09:09:42;;;;;;;50.45;31.15;;;;;;;;;;5133451;27;20023;-72
2021/11/03 09:12:09;;;;;;;52.78;31.15;;;;;;;;;;5133153;27;20451;-72
2021/11/03 09:14:35;;;;;;;55.47;31.00;;;;;;;;;;5133027;28;20019;-72
2021/11/03 09:17:01;;;;;;;31.42;24.02;;;;;;;;;;5131894;28;20110;-72
2021/11/03 09:19:27;;;;;;;38.78;25.02;;;768.20;921.60;;;;;;5131522;28;20030;-72
2021/11/03 09:21:53;;;;;;;52.00;28.30;;;;;;;;;;5132854;28;20722;-73
2021/11/03 09:24:19;;;;;;;41.42;25.35;;;;;;;;;;5132950;28;20015;-74
2021/11/03 09:26:45;;;;;;;48.42;29.67;;;;;;;;;;5133810;27;20127;-73
2021/11/03 09:29:12;;;;;;;33.40;25.70;;;;;;;;;;5137279;27;20011;-73
2021/11/03 09:31:39;;;;;;;47.78;26.17;;;;;;;;;;5137160;27;20042;-73
2021/11/03 09:34:05;;;;;;;65.10;36.72;;;973.00;588.80;;;;;;5135610;27;20035;-74
2021/11/03 09:36:32;;;;;;;41.40;32.95;;;;;;;;;;5137181;27;20035;-73
2021/11/03 09:38:58;;;;;;;37.72;26.08;;;896.00;716.80;;;;;;5136728;27;20015;-74
2021/11/03 09:41:47;;;;;;;53.03;31.27;;;922.50;640.00;;;;;;5136916;27;20085;-75
2021/11/03 09:44:22;;;;;;;38.83;26.33;;;;;;;;;;5136966;27;20410;-75
2021/11/03 09:46:51;;;;;;;41.00;25.67;;;;;;;;;;5136917;27;20110;-75
2021/11/03 09:49:21;;;;;;;35.65;24.15;;;;;;;;;;5136993;27;20064;-76
2021/11/03 09:51:51;;;;;;;36.83;24.65;;;;;;;;;;5135363;27;20424;-76
2021/11/03 09:54:19;;;;;;;34.25;22.85;;;;;;;;;;5136854;27;20022;-74
2021/11/03 09:56:47;;;;;;;31.80;20.73;;;;;;;;;;5137076;27;20035;-76
2021/11/03 09:59:39;;;;;;;34.03;24.17;;;922.10;665.60;;;;;;5122105;27;20024;-75
2021/11/03 10:02:11;;;;;;;49.80;23.05;;;972.80;614.40;;;;;;5136569;27;20559;-76
2021/11/03 10:04:54;;;;;;;29.13;16.90;;;972.80;614.40;;;;;;5136356;27;20446;-76
2021/11/03 10:07:31;;;;;;;18.05;13.10;;;;;;;;;;5136712;27;20016;-75
2021/11/03 10:09:57;;;;;;;21.75;12.80;;;;;;;;;;5136395;27;20370;-75
2021/11/03 10:12:25;;;;;;;20.48;12.82;;;;;;;;;;5136384;27;20031;-75
2021/11/03 10:14:54;;;;;;;21.50;13.07;;;;;;;;;;5134826;27;20023;-75
2021/11/03 10:17:19;;;;;;;14.77;8.65;;;947.20;588.80;;;;;;5136379;27;20106;-73
2021/11/03 10:19:45;;;;;;;15.18;9.73;;;;;;;;;;5136216;27;20571;-74
2021/11/03 10:22:24;;;;;;;18.95;12.80;;;;;;;;;;5115575;28;20027;-75
2021/11/03 10:25:15;;;;;;;10.27;6.68;;;922.50;512.00;;;;;;5115599;28;20469;-74
2021/11/03 10:27:43;;;;;;;15.60;7.50;;;;;;;;;;5104288;28;20431;-73
2021/11/03 10:30:36;;;;;;;5.15;3.42;;;;;;;;;;5114070;28;20023;-74
2021/11/03 10:33:28;;;;;;;12.55;8.95;;;896.90;486.40;;;;;;5111168;28;20047;-74
2021/11/03 10:36:00;;;;;;;6.03;3.60;;;;;;;;;;5113752;28;20023;-74
2021/11/03 10:38:38;;;;;;;12.52;7.30;;;845.60;614.40;;;;;;5114888;28;20425;-74
2021/11/03 10:41:13;;;;;;;8.38;5.18;;;845.60;614.40;;;;;;5115406;28;20055;-74
2021/11/03 10:43:43;;;;;;;8.25;5.00;;;896.10;537.60;;;;;;5115390;28;20462;-74
2021/11/03 10:46:29;;;;;;;9.25;4.55;;;922.00;512.00;;;;;;5115784;28;20019;-74
2021/11/03 10:49:39;;;;;;;8.73;4.40;;;;;;;;;;5115469;28;20347;-74
2021/11/03 10:52:16;;;;;;;8.98;5.00;;;;;;;;;;5072473;28;20106;-73
2021/11/03 10:54:47;;;;;;;11.13;5.63;;;;;;;;;;5072376;28;20135;-73
2021/11/03 10:57:18;;;;;;;11.52;7.45;;;;;;;;;;5072250;28;20481;-72
2021/11/03 10:59:52;;;;;;;12.02;5.63;;;;;;;;;;5072674;28;20426;-72
2021/11/03 11:02:23;;;;;;;13.35;6.32;;;;;;;;;;5072391;28;20036;-71
2021/11/03 11:04:50;;;;;;;10.15;6.22;;;;;;;;;;5072482;28;20016;-74
2021/11/03 11:07:22;;;;;;;29.70;18.63;;;;;;;;;;5072180;28;20082;-72
2021/11/03 11:10:04;;;;;;;13.63;9.13;;;717.10;793.60;;;;;;5072130;28;20041;-72
2021/11/03 11:12:33;;;;;;;22.13;15.10;;;;;;;;;;5072173;28;20028;-72
2021/11/03 11:15:13;;;;;;;12.13;8.63;;;691.60;793.60;;;;;;5072207;28;20075;-74
2021/11/03 11:17:49;;;;;;;21.27;10.07;;;691.30;819.20;;;;;;5072245;28;20437;-73
2021/11/03 11:20:22;;;;;;;14.30;6.63;;;;;;;;;;5075626;28;20027;-73
2021/11/03 11:22:54;;;;;;;13.15;8.40;;;;;;;;;;5092412;28;20494;-73
2021/11/03 11:25:33;;;;;;;13.27;6.85;;;;;;;;;;5090177;28;20026;-72
2021/11/03 11:28:02;;;;;;;18.42;13.90;;;;;;;;;;5071781;28;20102;-72
2021/11/03 11:30:32;;;;;;;7.97;5.68;;;;;;;;;;5133257;27;20039;-73
2021/11/03 11:33:02;;;;;;;9.68;4.95;;;;;;;;;;5135088;27;20019;-72
2021/11/03 11:36:09;;;;;;;70.43;48.15;;;640.60;844.80;;;;;;5135090;27;20485;-73
2021/11/03 11:38:35;;;;;;;56.45;32.40;;;;;;;;;;5071593;28;20025;-71
2021/11/03 11:41:14;;;;;;;19.10;11.50;;;640.50;896.00;;;;;;5054747;28;20029;-72
2021/11/03 11:43:50;;;;;;;16.05;9.82;;;640.30;896.00;;;;;;5071373;28;20438;-72
2021/11/03 11:46:29;;;;;;;15.27;7.18;;;640.00;921.60;;;;;;5071482;28;20020;-72
2021/11/03 11:49:01;;;;;;;19.05;10.90;;;615.10;972.80;;;;;;5071286;28;20032;-71
2021/11/03 11:51:33;;;;;;;24.40;12.95;;;;;;;;;;5070211;28;20394;-73
2021/11/03 11:54:01;;;;;;;12.95;8.55;;;;;;;;;;5071010;28;20032;-72
2021/11/03 11:56:35;;;;;;;19.33;8.82;;;615.30;947.20;;;;;;5071164;28;20114;-71
2021/11/03 11:59:01;;;;;;;20.45;11.82;;;615.20;972.80;;;;;;5070217;28;20064;-73
2021/11/03 12:01:50;;;;;;;13.60;7.15;;;;;;;;;;5058346;28;20041;-71
2021/11/03 12:04:21;;;;;;;6.72;4.45;;;;;;;;;;5055896;28;20549;-71
2021/11/03 12:06:53;;;;;;;9.95;6.93;;;;;;;;;;5062024;28;20048;-72
2021/11/03 12:09:37;;;;;;;11.32;6.90;;;;;;;;;;5066812;28;20025;-73
2021/11/03 12:12:08;;;;;;;11.32;6.20;;;;;;;;;;5071061;28;20021;-73
2021/11/03 12:14:36;;;;;;;14.90;8.55;;;640.50;870.40;;;;;;5117432;27;20153;-73
2021/11/03 12:17:08;;;;;;;16.10;11.27;;;;;;;;;;5134263;27;20020;-73
2021/11/03 12:19:42;;;;;;;24.80;14.52;;;;;;;;;;5134189;27;20027;-73
2021/11/03 12:22:10;;;;;;;17.10;11.27;;;;;;;;;;5133944;27;20027;-73
2021/11/03 12:24:51;;;;;;;17.25;13.13;;;691.80;793.60;;;;;;5134104;27;20012;-73
2021/11/03 12:27:23;;;;;;;19.77;16.02;;;;;;;;;;5133577;27;20047;-74
2021/11/03 12:29:57;;;;;;;15.32;9.57;;;666.50;844.80;;;;;;5134113;27;20043;-73
2021/11/03 12:32:27;;;;;;;20.55;14.45;;;;;;;;;;5133862;27;20424;-73
2021/11/03 12:35:05;;;;;;;14.30;8.90;;;665.90;870.40;;;;;;5134010;27;20027;-73
2021/11/03 12:37:33;;;;;;;12.50;8.48;;;;;;;;;;5133769;27;20064;-72
2021/11/03 12:40:01;;;;;;;19.73;14.80;;;;;;;;;;5133967;27;20109;-73
2021/11/03 12:42:32;;;;;;;17.48;10.00;;;;;;;;;;5133648;27;20039;-70
2021/11/03 12:45:08;;;;;;;11.77;8.60;;;;;;;;;;5133645;27;20032;-73
2021/11/03 12:47:35;;;;;;;15.27;10.63;;;;;;;;;;5133604;27;20019;-71
2021/11/03 12:50:27;;;;;;;18.73;8.93;;;640.00;972.80;;;;;;5133577;27;20125;-73
2021/11/03 12:53:13;;;;;;;12.50;8.45;;;;;;;;;;5100332;27;20114;-73
2021/11/03 12:55:45;;;;;;;13.65;8.52;;;;;;;;;;5128868;27;20110;-73
2021/11/03 12:58:25;;;;;;;14.27;6.80;;;;;;;;;;5130358;27;20058;-72
2021/11/03 13:00:51;;;;;;;13.35;7.45;;;;;;;;;;5132872;27;20038;-72
2021/11/03 13:03:26;;;;;;;16.00;8.38;;;;;;;;;;5132993;27;20098;-72
2021/11/03 13:05:52;;;;;;;13.52;9.63;;;;;;;;;;5133378;27;20023;-73
2021/11/03 13:08:38;;;;;;;13.10;8.80;;;;;;;;;;5133620;27;20047;-73
2021/11/03 13:11:25;;;;;;;19.02;10.05;;;;;;;;;;5132897;27;20072;-72
2021/11/03 13:14:00;;;;;;;16.20;9.20;;;589.30;1024.00;;;;;;5132864;27;20027;-73
2021/11/03 13:16:34;;;;;;;22.98;12.27;;;589.30;1049.60;;;;;;5118387;28;20043;-74
2021/11/03 13:19:15;;;;;;;15.80;7.63;;;589.40;1049.60;;;;;;5132827;28;20027;-73
2021/11/03 13:21:42;;;;;;;14.35;9.82;;;589.30;1024.00;;;;;;5132463;28;20092;-72
2021/11/03 13:24:13;;;;;;;17.20;9.25;;;;;;;;;;5132869;28;20157;-73
2021/11/03 13:26:40;;;;;;;20.95;10.50;;;589.20;1049.60;;;;;;5132712;28;20450;-73
2021/11/03 13:29:29;;;;;;;21.15;11.70;;;589.10;1075.20;;;;;;5133128;28;20139;-73
2021/11/03 13:32:14;;;;;;;23.23;14.05;;;;;;;;;;5132790;28;20039;-73
2021/11/03 13:34:45;;;;;;;20.67;10.02;;;;;;;;;;5122030;28;20012;-73
2021/11/03 13:37:20;;;;;;;18.45;11.65;;;;;;;;;;5130047;28;20023;-73
2021/11/03 13:40:17;;;;;;;23.85;13.45;;;;;;;;;;5132884;28;20088;-72
2021/11/03 13:42:49;;;;;;;23.48;14.88;;;;;;;;;;5099492;28;20039;-72
2021/11/03 13:45:15;;;;;;;24.13;14.63;;;;;;;;;;5126380;28;20054;-72
2021/11/03 13:47:41;;;;;;;35.25;23.65;;;;;;;;;;5132645;28;20024;-72
2021/11/03 13:50:20;;;;;;;22.42;13.43;;;;;;;;;;5132679;28;20485;-72
2021/11/03 13:52:58;;;;;;;22.83;13.75;;;;;;;;;;5132598;28;20511;-72
2021/11/03 13:55:25;;;;;;;31.92;24.33;;;;;;;;;;5132563;28;20022;-72
2021/11/03 13:57:51;;;;;;;21.55;13.15;;;;;;;;;;5132762;28;20031;-72
2021/11/03 14:00:20;;;;;;;22.35;12.07;;;;;;;;;;5132492;28;20436;-72
2021/11/03 14:02:46;;;;;;;33.35;25.08;;;;;;;;;;5132358;28;20027;-72